Tiempo atmosférico en la estación meteorológica de Ainsa, Huesca (610 m.)



Fecha
DESCASC
Temp. máxima en grados centígrados (hora)
DESCASC
Temp. mínima en grados centígrados (hora)
DESCASC
Temp. media en grados centígrados
DESCASC
Racha de viento máxima en m/sg (hora)
DESCASC
Velocidad máxima media en intervalos de 10 minutos(hora)
DESCASC
Precipitaciones diarias en mm
DESCASC
Precipitaciones de 00:00 a 06:00 en mm
DESCASC
Precipitaciones de 06:00 a 12:00 en mm
DESCASC
Precipitaciones de 12:00 a 18:00 en mm
DESCASC
Precipitaciones de 18:00 a 24:00 en mm
DESCASC
16-02-2020 18.8 (16:00) 3 (07:10) 10.9 4.17 (17:10) 3.61 (18:00) 0 0 0 0 0
15-02-2020 17.6 (15:00) 2.1 (06:00) 9.9 5.28 (16:30) 4.44 (16:30) 0 0 0 0 0
14-02-2020 17.2 (15:10) 2.7 (08:10) 10 5.83 (12:40) 4.17 (17:40) 0 0 0 0 0
13-02-2020 16.6 (16:50) 6.7 (00:00) 11.7 10.28 (17:50) 6.67 (16:10) 1 1 0 0 0
12-02-2020 15.4 (14:30) 4 (00:00) 9.7 8.61 (17:00) 6.67 (17:10) 0 0 0 0 0
11-02-2020 17.3 (17:10) 4.2 (00:00) 10.7 6.94 (17:40) 4.17 (17:40) 0 0 0 0 0
10-02-2020 18.3 (15:50) 3.4 (00:00) 10.8 5.56 (13:50) 4.44 (13:50) 0 0 0 0 0
09-02-2020 13.9 (15:30) 4.4 (00:00) 9.1 5 (17:20) 3.89 (16:10) 0 0 0 0 0
08-02-2020 10.2 (15:30) -0.3 (00:00) 4.9 3.89 (02:40) 3.06 (16:10) 0 0 0 0 0
07-02-2020 13.1 (16:10) -0.9 (-00:0) 6.1 5.83 (17:20) 5 (17:20) 0 0 0 0 0
06-02-2020 15.4 (15:50) -1.8 (-00:0) 6.8 6.11 (17:30) 5 (17:50) 0 0 0 0 0
05-02-2020 14.1 (15:10) -0.9 (-00:0) 6.6 6.11 (00:50) 3.89 (00:30) 0 0 0 0 0
04-02-2020 19.9 (13:10) 3.5 (00:00) 11.7 16.67 (15:40) 9.72 (22:20) 0 0 0 0 0
03-02-2020 19.4 (16:00) 4.6 (07:30) 12 4.72 (01:40) 3.33 (01:50) 0 0 0 0 0
02-02-2020 18.6 (16:10) 4.6 (00:00) 11.6 5.28 (01:00) 3.89 (15:40) 0 0 0 0 0
01-02-2020 18.4 (16:30) 4.6 (00:00) 11.5 6.11 (19:20) 5.28 (19:10) 0 0 0 0 0
31-01-2020 16.6 (14:30) 5.8 (00:00) 11.2 6.67 (16:40) 5.28 (17:40) 0 0 0 0 0
30-01-2020 14.4 (14:20) 5.4 (00:00) 9.9 3.89 (14:10) 2.78 (07:40) 0 0 0 0 0
29-01-2020 15.1 (15:30) 0 (00:00) 7.6 5.83 (20:20) 4.17 (20:20) 0 0 0 0 0
28-01-2020 14.9 (16:00) 3 (00:00) 8.9 10.28 (15:20) 6.67 (15:50) 0.6 0.6 0 0 0
27-01-2020 8.5 (15:00) -0.7 (-00:0) 3.9 4.44 (16:40) 3.61 (16:40) 0.8 0 0.2 0.2 0.4
26-01-2020 10.4 (13:50) 3.3 (00:00) 6.8 4.72 (16:40) 3.61 (16:40) 7.8 6.4 1.4 0 0
25-01-2020 8.1 (16:10) 4.5 (00:00) 6.3 5.28 (02:20) 3.33 (01:20) 2.2 1.4 0 0.2 0.6
24-01-2020 11.9 (14:50) 2.9 (00:00) 7.4 4.17 (04:10) 3.33 (04:20) 0 0 0 0 0
23-01-2020 5.1 (14:50) 1.8 (00:00) 3.4 6.67 (06:50) 4.17 (09:40) 29.8 13.8 10.4 5.6 0
22-01-2020 10.7 (13:30) 2 (00:00) 6.3 6.11 (03:50) 3.89 (03:10) 49 8 0 12.2 28.8

Gráficas

Temp. máximas Temp. mínimas Temp. medias Precipitaciones Rachas de viento máximas Velocidades máximas media en intervalos de 10 minutos

Datos horarios

Fecha y hora oficial Temperatura (ºC) Velocidad del viento (km/h) Dirección del viento Racha (km/h) Dirección de racha Precipitación (mm) Presión (hPa) Tendencia (hPa) Humedad (%)
2020-02-20 23:00:00 5.5 10 Noroeste 13 Noroeste 0 -- -- 85
2020-02-20 22:00:00 6.2 8 Noroeste 13 Noroeste 0 -- -- 83
2020-02-20 21:00:00 7.4 6 Noroeste 13 Noroeste 0 -- -- 80
2020-02-20 20:00:00 9.4 9 Noroeste 10 Noroeste 0 -- -- 73
2020-02-20 19:00:00 11.3 5 Este 19 Sudeste 0 -- -- 65
2020-02-20 18:00:00 13.5 17 Sudeste 22 Sudeste 0 -- -- 59
2020-02-20 17:00:00 14.7 17 Sudeste 22 Sudeste 0 -- -- 55
2020-02-20 16:00:00 15.8 13 Sudeste 17 Sudeste 0 -- -- 49
2020-02-20 15:00:00 15.5 12 Sudeste 19 Sudeste 0 -- -- 50
2020-02-20 14:00:00 14.4 14 Sudeste 17 Sudeste 0 -- -- 51
2020-02-20 13:00:00 13 6 Sudeste 11 Este 0 -- -- 51
2020-02-20 12:00:00 10.3 6 Sudeste 10 Sudeste 0 -- -- 58
2020-02-20 11:00:00 6.7 3 Sudoeste 9 Sudoeste 0 -- -- 78
2020-02-20 10:00:00 3 3 Oeste 6 Este 0 -- -- 89
2020-02-20 09:00:00 0.4 3 Nordeste 7 Noroeste 0 -- -- 97
2020-02-20 08:00:00 -1.2 3 Norte 8 Oeste 0 -- -- 96
2020-02-20 07:00:00 -0.6 0 Calma 8 Norte 0 -- -- 97
2020-02-20 06:00:00 -- -- -- -- -- -- -- -- --
2020-02-20 05:00:00 0.3 6 Oeste 11 Norte 0 -- -- 95
2020-02-20 04:00:00 0.9 7 Noroeste 14 Noroeste 0 -- -- 95
2020-02-20 03:00:00 1.2 6 Noroeste 12 Noroeste 0 -- -- 95
2020-02-20 02:00:00 1.7 7 Noroeste 11 Noroeste 0 -- -- 93
2020-02-20 01:00:00 1.8 8 Noroeste 13 Noroeste 0 -- -- 93
2020-02-20 00:00:00 2.9 9 Noroeste 12 Oeste 0 -- -- 89
2020-02-19 23:00:00 3.4 7 Noroeste 12 Noroeste 0 -- -- 88
2020-02-19 22:00:00 4.4 8 Oeste 10 Oeste 0 -- -- 83
2020-02-19 21:00:00 5.4 9 Noroeste 12 Oeste 0 -- -- 80
2020-02-19 20:00:00 7.1 7 Noroeste 9 Noroeste 0 -- -- 74
2020-02-19 19:00:00 8.6 5 Sudeste 22 Sudeste 0 -- -- 68
2020-02-19 18:00:00 10.4 18 Sudeste 22 Sudeste 0 -- -- 62
2020-02-19 17:00:00 11.5 18 Sudeste 28 Sudeste 0 -- -- 58
2020-02-19 16:00:00 12.4 20 Sudeste 27 Sudeste 0 -- -- 55
2020-02-19 15:00:00 12.9 18 Sudeste 23 Sudeste 0 -- -- 53
2020-02-19 14:00:00 12.8 15 Sudeste 21 Sudeste 0 -- -- 48
2020-02-19 13:00:00 12 11 Sudeste 15 Sudeste 0 -- -- 49
2020-02-19 12:00:00 9.8 4 Sudoeste 9 Este 0 -- -- 56
2020-02-19 11:00:00 6.7 4 Sudeste 9 Sur 0 -- -- 71
2020-02-19 10:00:00 3 2 Este 8 Noroeste 0 -- -- 83
2020-02-19 09:00:00 -0.1 4 Noroeste 14 Noroeste 0 -- -- 91
2020-02-19 08:00:00 -0.9 6 Noroeste 10 Norte 0 -- -- 95
2020-02-19 07:00:00 -0.8 8 Noroeste 12 Norte 0 -- -- 96
2020-02-19 06:00:00 -0.1 10 Norte 13 Norte 0 -- -- 94
2020-02-19 05:00:00 0.3 6 Noroeste 13 Noroeste 0 -- -- 96
2020-02-19 04:00:00 0.9 2 Oeste 16 Norte 0 -- -- 93
2020-02-19 03:00:00 1.5 8 Norte 17 Norte 0 -- -- 92
2020-02-19 02:00:00 2 10 Noroeste 15 Norte 0 -- -- 91
2020-02-19 01:00:00 2.5 9 Noroeste 16 Noroeste 0 -- -- 89
2020-02-19 00:00:00 3 9 Noroeste 13 Noroeste 0 -- -- 90
2020-02-18 23:00:00 3.8 8 Norte 12 Norte 0 -- -- 86
2020-02-18 22:00:00 4.7 4 Noroeste 12 Oeste 0 -- -- 83
2020-02-18 21:00:00 5.6 9 Noroeste 15 Oeste 0 -- -- 78
2020-02-18 20:00:00 7.1 7 Noroeste 14 Norte 0 -- -- 74
2020-02-18 19:00:00 9 6 Nordeste 23 Sudeste 0 -- -- 66
2020-02-18 18:00:00 10.6 21 Sudeste 25 Sudeste 0 -- -- 59
2020-02-18 17:00:00 11.4 22 Sudeste 29 Sudeste 0 -- -- 60
2020-02-18 16:00:00 12 24 Sudeste 30 Sudeste 0 -- -- 59
2020-02-18 15:00:00 12.4 24 Sudeste 28 Sudeste 0 -- -- 57
2020-02-18 14:00:00 12.5 22 Sudeste 26 Sudeste 0 -- -- 55
2020-02-18 13:00:00 12.5 12 Sudeste 19 Sudeste 0 -- -- 46
2020-02-18 12:00:00 10.9 12 Sudeste 16 Sudeste 0 -- -- 51
2020-02-18 11:00:00 8.2 7 Sudeste 11 Sur 0 -- -- 58
2020-02-18 10:00:00 5.3 2 Sur 8 Norte 0 -- -- 76
2020-02-18 09:00:00 2.1 0 Calma 11 Noroeste 0 -- -- 81
2020-02-18 08:00:00 1.2 7 Noroeste 16 Noroeste 0 -- -- 83
2020-02-18 07:00:00 2 11 Noroeste 16 Noroeste 0 -- -- 81
2020-02-18 06:00:00 1.8 9 Norte 15 Norte 0 -- -- 84
2020-02-18 05:00:00 2.6 11 Norte 15 Norte 0 -- -- 82
2020-02-18 04:00:00 3.4 10 Norte 15 Norte 0 -- -- 82
2020-02-18 03:00:00 4.8 8 Norte 13 Norte 0 -- -- 77
2020-02-18 02:00:00 5.7 7 Noroeste 13 Oeste 0 -- -- 77
2020-02-18 01:00:00 6.5 4 Norte 9 Noroeste 0 -- -- 73
2020-02-18 00:00:00 7.1 4 Norte 10 Norte 0 -- -- 77
2020-02-17 23:00:00 8 4 Norte 10 Norte 0 -- -- 75
2020-02-17 22:00:00 9.4 5 Nordeste 15 Oeste 0 -- -- 66
2020-02-17 21:00:00 10.3 13 Oeste 22 Oeste 0 -- -- 59
2020-02-17 20:00:00 11.2 6 Sur 19 Sudoeste 0 -- -- 64
2020-02-17 19:00:00 12.6 10 Sudoeste 33 Oeste 0 -- -- 63
2020-02-17 18:00:00 14.1 22 Sudoeste 40 Sudoeste 0 -- -- 67
2020-02-17 17:00:00 16.1 27 Sudoeste 42 Sudoeste 0 -- -- 61
2020-02-17 16:00:00 17.3 30 Sudoeste 42 Sudoeste 0 -- -- 59
2020-02-17 15:00:00 17.1 12 Sudeste 18 Sudeste 0 -- -- 63
2020-02-17 14:00:00 15.3 6 Sudeste 13 Este 0 -- -- 63
2020-02-17 13:00:00 13.6 8 Sudeste 13 Sudeste 0 -- -- 67
2020-02-17 12:00:00 12.4 6 Sudeste 10 Este 0 -- -- 67
2020-02-17 11:00:00 11.8 4 Sur 10 Sur 0 -- -- 69
2020-02-17 10:00:00 7.4 3 Sudeste 5 Sudeste 0 -- -- 86
2020-02-17 09:00:00 4.8 0 Calma 9 Norte 0 -- -- 95
2020-02-17 08:00:00 3.4 5 Noroeste 13 Norte 0 -- -- 96
2020-02-17 07:00:00 3.5 5 Norte 10 Noroeste 0 -- -- 95
2020-02-17 06:00:00 4.3 3 Oeste 12 Norte 0 -- -- 93
2020-02-17 05:00:00 4.1 5 Noroeste 9 Oeste 0 -- -- 94
2020-02-17 04:00:00 4.6 6 Oeste 13 Noroeste 0 -- -- 94
2020-02-17 03:00:00 5.2 7 Noroeste 11 Noroeste 0 -- -- 93
2020-02-17 02:00:00 5.6 6 Oeste 12 Norte 0 -- -- 94
2020-02-17 01:00:00 6.8 6 Noroeste 10 Noroeste 0 -- -- 89
2020-02-17 00:00:00 7 8 Norte 13 Norte 0 -- -- 88
2020-02-16 23:00:00 8.7 6 Noroeste 13 Noroeste 0 -- -- 84
2020-02-16 22:00:00 9.2 8 Norte 13 Norte 0 -- -- 83
2020-02-16 21:00:00 10.8 8 Noroeste 12 Norte 0 -- -- 79
2020-02-16 20:00:00 12.3 10 Norte 12 Norte 0 -- -- 74
2020-02-16 19:00:00 14.4 5 Este 14 Sudeste 0 -- -- 66
2020-02-16 18:00:00 16.9 13 Sudeste 15 Sudeste 0 -- -- 62
2020-02-16 17:00:00 18.6 7 Sudeste 12 Sudeste 0 -- -- 42
2020-02-16 16:00:00 18.8 8 Sudeste 13 Sudeste 0 -- -- 47
2020-02-16 15:00:00 18.5 10 Sudeste 13 Sudeste 0 -- -- 49
2020-02-16 14:00:00 16.8 6 Sudeste 10 Sudeste 0 -- -- 52
2020-02-16 13:00:00 15.9 3 Sudeste 8 Sudeste 0 -- -- 52
2020-02-16 12:00:00 13.3 3 Sudoeste 6 Sudoeste 0 -- -- 61
2020-02-16 11:00:00 8.7 3 Oeste 9 Nordeste 0 -- -- 74
2020-02-16 10:00:00 5.9 3 Sudeste 11 Noroeste 0 -- -- 87
2020-02-16 09:00:00 4.7 4 Noroeste 9 Noroeste 0 -- -- 92
2020-02-16 08:00:00 3.6 6 Noroeste 10 Noroeste 0 -- -- 96
2020-02-16 07:00:00 3.1 8 Noroeste 13 Norte 0 -- -- 96
2020-02-16 06:00:00 4.1 11 Norte 14 Norte 0 -- -- 96
2020-02-16 05:00:00 4.8 6 Noroeste 10 Noroeste 0 -- -- 93
2020-02-16 04:00:00 4.5 8 Noroeste 11 Norte 0 -- -- 94
2020-02-16 03:00:00 5.8 4 Oeste 12 Noroeste 0 -- -- 96
2020-02-16 02:00:00 5.7 7 Noroeste 12 Noroeste 0 -- -- 94
2020-02-16 01:00:00 6.8 6 Noroeste 15 Noroeste 0 -- -- 95
2020-02-16 00:00:00 7.3 9 Norte 14 Norte 0 -- -- 92
2020-02-15 23:00:00 8.2 9 Noroeste 13 Oeste 0 -- -- 91
2020-02-15 22:00:00 9.2 5 Oeste 10 Noroeste 0 -- -- 89
2020-02-15 21:00:00 10.4 6 Oeste 11 Norte 0 -- -- 85
2020-02-15 20:00:00 11.6 5 Norte 12 Sudeste 0 -- -- 81
2020-02-15 19:00:00 12.4 12 Sudeste 17 Sudeste 0 -- -- 79
2020-02-15 18:00:00 13.9 11 Sudeste 19 Sudeste 0 -- -- 73
2020-02-15 17:00:00 16 15 Sudeste 19 Sudeste 0 -- -- 66
2020-02-15 16:00:00 17.5 13 Sudeste 17 Sudeste 0 -- -- 58
2020-02-15 15:00:00 17.6 12 Sudeste 15 Sudeste 0 -- -- 54
2020-02-15 14:00:00 17.2 9 Sudeste 13 Sudeste 0 -- -- 50
2020-02-15 13:00:00 15 5 Sudeste 10 Este 0 -- -- 57
2020-02-15 12:00:00 12 4 Este 12 Sudeste 0 -- -- 60
2020-02-15 11:00:00 9.2 5 Sur 9 Este 0 -- -- 75
2020-02-15 10:00:00 5.3 4 Noroeste 8 Noroeste 0 -- -- 89
2020-02-15 09:00:00 2.7 0 Calma 10 Norte 0 -- -- 95
2020-02-15 08:00:00 2.3 5 Norte 10 Noroeste 0 -- -- 96
2020-02-15 07:00:00 2.4 9 Noroeste 16 Noroeste 0 -- -- 97
2020-02-15 06:00:00 2.1 9 Noroeste 12 Norte 0 -- -- 96
2020-02-15 05:00:00 3.4 5 Noroeste 10 Norte 0 -- -- 94
2020-02-15 04:00:00 4 6 Noroeste 13 Noroeste 0 -- -- 92
2020-02-15 03:00:00 4.1 6 Noroeste 15 Norte 0 -- -- 93
2020-02-15 02:00:00 5 8 Noroeste 14 Noroeste 0 -- -- 90
2020-02-15 01:00:00 5.4 5 Noroeste 15 Noroeste 0 -- -- 92
2020-02-15 00:00:00 5.7 6 Noroeste 13 Noroeste 0 -- -- 90
2020-02-14 23:00:00 6.5 7 Noroeste 12 Norte 0 -- -- 89
2020-02-14 22:00:00 7.7 8 Oeste 14 Oeste 0 -- -- 85
2020-02-14 21:00:00 8.9 9 Noroeste 13 Noroeste 0 -- -- 81
2020-02-14 20:00:00 10.6 8 Norte 10 Norte 0 -- -- 76
2020-02-14 19:00:00 12 10 Sudeste 17 Sudeste 0 -- -- 72
2020-02-14 18:00:00 14.4 13 Sudeste 18 Sudeste 0 -- -- 63
2020-02-14 17:00:00 16.2 12 Sudeste 17 Sudeste 0 -- -- 51
2020-02-14 16:00:00 17.1 10 Sudeste 13 Sudeste 0 -- -- 48
2020-02-14 15:00:00 17 3 Este 15 Sudeste 0 -- -- 47
2020-02-14 14:00:00 15.9 10 Sudeste 18 Sudeste 0 -- -- 54
2020-02-14 13:00:00 14.7 11 Sudeste 21 Sudeste 0 -- -- 59
2020-02-14 12:00:00 12.2 10 Sudeste 14 Sudeste 0 -- -- 60
2020-02-14 11:00:00 10 5 Sur 11 Sudeste 0 -- -- 69
2020-02-14 10:00:00 6.9 2 Sudoeste 7 Norte 0 -- -- 82
2020-02-14 09:00:00 4 3 Oeste 14 Norte 0 -- -- 90
2020-02-14 08:00:00 3 6 Noroeste 12 Noroeste 0 -- -- 91
2020-02-14 07:00:00 3.9 9 Noroeste 17 Norte 0 -- -- 88
2020-02-14 06:00:00 3.8 14 Norte 16 Norte 0 -- -- 90
2020-02-14 05:00:00 3.8 12 Noroeste 16 Noroeste 0 -- -- 92
2020-02-14 04:00:00 4.7 7 Noroeste 13 Norte 0 -- -- 92
2020-02-14 03:00:00 4.5 12 Norte 14 Norte 0 -- -- 92
2020-02-14 02:00:00 5.1 8 Norte 14 Norte 0 -- -- 91
2020-02-14 01:00:00 5.9 6 Norte 18 Noroeste 0 -- -- 88
2020-02-14 00:00:00 6.7 11 Noroeste 15 Norte 0 -- -- 87
2020-02-13 23:00:00 7.8 8 Noroeste 12 Norte 0 -- -- 82
2020-02-13 22:00:00 8.2 7 Nordeste 26 Noroeste 0 -- -- 83
2020-02-13 21:00:00 10.1 19 Norte 23 Norte 0 -- -- 76
2020-02-13 20:00:00 12.2 11 Oeste 26 Oeste 0 -- -- 65
2020-02-13 19:00:00 13.2 17 Oeste 27 Noroeste 0 -- -- 62
2020-02-13 18:00:00 15 23 Oeste 37 Noroeste 0 -- -- 57
2020-02-13 17:00:00 16.4 22 Oeste 35 Oeste 0 -- -- 52
2020-02-13 16:00:00 15.7 21 Oeste 32 Oeste 0 -- -- 58
2020-02-13 15:00:00 14.4 6 Sur 10 Sur 0 -- -- 70
2020-02-13 14:00:00 13.7 3 Nordeste 7 Este 0 -- -- 72
2020-02-13 13:00:00 13.1 4 Sudeste 11 Sudeste 0 -- -- 74
2020-02-13 12:00:00 13.2 3 Este 10 Sudeste 0 -- -- 75
2020-02-13 11:00:00 11.3 3 Sudoeste 7 Noroeste 0 -- -- 84
2020-02-13 10:00:00 8.4 6 Norte 11 Norte 0 -- -- 96
2020-02-13 09:00:00 7.3 6 Noroeste 12 Norte 0 -- -- 98
2020-02-13 08:00:00 7.1 8 Norte 14 Noroeste 0 -- -- 97
2020-02-13 07:00:00 7.2 6 Norte 10 Noroeste 0 -- -- 98
2020-02-13 06:00:00 7.5 0 Calma 6 Noroeste 0 -- -- 98
2020-02-13 05:00:00 7.5 4 Oeste 7 Norte 0 -- -- 98
2020-02-13 04:00:00 7.6 0 Calma 4 Norte 0 -- -- 96
2020-02-13 03:00:00 7.8 0 Calma 6 Sudeste 1 -- -- 95
2020-02-13 02:00:00 8.1 2 Noroeste 4 Oeste 0 -- -- 93
2020-02-13 01:00:00 8.2 3 Nordeste 5 Nordeste 0 -- -- 91
2020-02-13 00:00:00 8.2 2 Noroeste 6 Sudoeste 0 -- -- 91
2020-02-12 23:00:00 8.5 3 Nordeste 7 Norte 0 -- -- 88
2020-02-12 22:00:00 8.5 2 Oeste 6 Norte 0 -- -- 87
2020-02-12 21:00:00 8.8 5 Norte 8 Norte 0 -- -- 87
2020-02-12 20:00:00 9.6 0 Calma 9 Sudeste 0 -- -- 84
2020-02-12 19:00:00 10.1 7 Sudeste 19 Sudeste 0 -- -- 82
2020-02-12 18:00:00 11 17 Sudeste 30 Sudeste 0 -- -- 78
2020-02-12 17:00:00 12.9 21 Sudeste 31 Sudeste 0 -- -- 67
2020-02-12 16:00:00 13.8 22 Sudeste 30 Sudeste 0 -- -- 63
2020-02-12 15:00:00 15.2 17 Sudeste 22 Sudeste 0 -- -- 58
2020-02-12 14:00:00 14.9 14 Sudeste 21 Sudeste 0 -- -- 56
2020-02-12 13:00:00 13.9 14 Sudeste 17 Sudeste 0 -- -- 56
2020-02-12 12:00:00 12.5 4 Sur 9 Sudeste 0 -- -- 61
2020-02-12 11:00:00 9 3 Oeste 6 Oeste 0 -- -- 71
2020-02-12 10:00:00 6.3 0 Calma 13 Norte 0 -- -- 81
2020-02-12 09:00:00 4.5 4 Noroeste 16 Norte 0 -- -- 89
2020-02-12 08:00:00 4.1 12 Norte 15 Norte 0 -- -- 88
2020-02-12 07:00:00 5.3 9 Noroeste 15 Norte 0 -- -- 84
2020-02-12 06:00:00 5.4 8 Norte 14 Norte 0 -- -- 86
2020-02-12 05:00:00 6.8 8 Noroeste 15 Norte 0 -- -- 78
2020-02-12 04:00:00 6.6 13 Norte 16 Norte 0 -- -- 83
2020-02-12 03:00:00 7.2 7 Noroeste 15 Norte 0 -- -- 80
2020-02-12 02:00:00 7.6 8 Noroeste 12 Norte 0 -- -- 78
2020-02-12 01:00:00 8.3 9 Norte 12 Norte 0 -- -- 73
2020-02-12 00:00:00 8.5 4 Norte 13 Norte 0 -- -- 76
2020-02-11 23:00:00 9.4 3 Nordeste 14 Noroeste 0 -- -- 71
2020-02-11 22:00:00 10.3 10 Norte 13 Norte 0 -- -- 66
2020-02-11 21:00:00 11.6 3 Sudoeste 15 Oeste 0 -- -- 58
2020-02-11 20:00:00 12.5 5 Sudoeste 22 Noroeste 0 -- -- 57
2020-02-11 19:00:00 13 14 Oeste 20 Sudoeste 0 -- -- 57
2020-02-11 18:00:00 15 12 Oeste 25 Oeste 0 -- -- 52
2020-02-11 17:00:00 17.1 5 Sudeste 15 Sudeste 0 -- -- 55
2020-02-11 16:00:00 16.8 12 Sudeste 18 Sudeste 0 -- -- 59
2020-02-11 15:00:00 15.4 6 Este 12 Este 0 -- -- 66
2020-02-11 14:00:00 14.3 4 Este 8 Este 0 -- -- 68
2020-02-11 13:00:00 11.7 0 Calma 8 Nordeste 0 -- -- 76
2020-02-11 12:00:00 9.2 3 Norte 8 Este 0 -- -- 80
2020-02-11 11:00:00 8.5 3 Norte 8 Este 0 -- -- 83
2020-02-11 10:00:00 7.2 3 Oeste 11 Noroeste 0 -- -- 88
2020-02-11 09:00:00 5 6 Noroeste 14 Noroeste 0 -- -- 92
2020-02-11 08:00:00 4.4 11 Norte 16 Norte 0 -- -- 93
2020-02-11 07:00:00 4.5 8 Noroeste 14 Noroeste 0 -- -- 92
2020-02-11 06:00:00 4.8 6 Noroeste 15 Norte 0 -- -- 93
2020-02-11 05:00:00 4.9 8 Norte 17 Norte 0 -- -- 93
2020-02-11 04:00:00 5.1 8 Oeste 15 Norte 0 -- -- 95
2020-02-11 03:00:00 5.8 6 Norte 13 Norte 0 -- -- 92
2020-02-11 02:00:00 6.4 9 Noroeste 15 Norte 0 -- -- 93
2020-02-11 01:00:00 7.4 7 Norte 17 Norte 0 -- -- 89
2020-02-11 00:00:00 8 8 Noroeste 19 Norte 0 -- -- 88
2020-02-10 23:00:00 9.2 10 Norte 15 Norte 0 -- -- 85
2020-02-10 22:00:00 9.5 6 Nordeste 19 Norte 0 -- -- 85
2020-02-10 21:00:00 10.5 10 Norte 19 Norte 0 -- -- 83
2020-02-10 20:00:00 12.2 9 Noroeste 15 Norte 0 -- -- 78
2020-02-10 19:00:00 14.2 6 Norte 11 Nordeste 0 -- -- 72
2020-02-10 18:00:00 17.5 7 Sudeste 14 Sudeste 0 -- -- 61
2020-02-10 17:00:00 18.3 8 Sudeste 14 Sudeste 0 -- -- 59
2020-02-10 16:00:00 18.1 9 Sudeste 14 Sudeste 0 -- -- 59
2020-02-10 15:00:00 17.5 13 Sudeste 18 Sudeste 0 -- -- 61
2020-02-10 14:00:00 15.9 16 Sudeste 20 Sudeste 0 -- -- 62
2020-02-10 13:00:00 13.9 14 Sudeste 18 Sudeste 0 -- -- 68
2020-02-10 12:00:00 11.3 8 Sudeste 12 Sudeste 0 -- -- 74
2020-02-10 11:00:00 9.7 4 Sudeste 9 Oeste 0 -- -- 80
2020-02-10 10:00:00 6.1 3 Oeste 12 Nordeste 0 -- -- 93
2020-02-10 09:00:00 3.6 5 Noroeste 13 Noroeste 0 -- -- 98
2020-02-10 08:00:00 3.6 6 Noroeste 13 Norte 0 -- -- 99
2020-02-10 07:00:00 3.9 4 Noroeste 11 Noroeste 0 -- -- 98
2020-02-10 06:00:00 4.3 6 Norte 10 Norte 0 -- -- 96
2020-02-10 05:00:00 5.2 3 Norte 9 Norte 0 -- -- 95
2020-02-10 04:00:00 5.5 6 Norte 15 Norte 0 -- -- 95
2020-02-10 03:00:00 6.2 5 Norte 14 Norte 0 -- -- 93
2020-02-10 02:00:00 6.9 4 Noroeste 8 Noroeste 0 -- -- 91
2020-02-10 01:00:00 7.5 3 Noroeste 5 Noroeste 0 -- -- 90
2020-02-10 00:00:00 7.7 0 Calma 4 Sudeste 0 -- -- 88
2020-02-09 23:00:00 8.3 3 Noroeste 5 Oeste 0 -- -- 86
2020-02-09 22:00:00 8.3 4 Noroeste 9 Norte 0 -- -- 86
2020-02-09 21:00:00 8.5 5 Noroeste 9 Norte 0 -- -- 84
2020-02-09 20:00:00 8.9 6 Noroeste 9 Oeste 0 -- -- 82
2020-02-09 19:00:00 10 4 Nordeste 16 Sudeste 0 -- -- 78
2020-02-09 18:00:00 11.1 13 Sudeste 18 Sudeste 0 -- -- 73
2020-02-09 17:00:00 12.5 10 Sudeste 17 Sudeste 0 -- -- 65
2020-02-09 16:00:00 13 13 Sudeste 17 Sudeste 0 -- -- 63
2020-02-09 15:00:00 13.5 12 Sudeste 15 Sudeste 0 -- -- 61
2020-02-09 14:00:00 13.2 10 Sudeste 18 Sudeste 0 -- -- 63
2020-02-09 13:00:00 12.5 9 Sudeste 14 Este 0 -- -- 67
2020-02-09 12:00:00 10.7 3 Oeste 8 Norte 0 -- -- 72
2020-02-09 11:00:00 7.7 2 Nordeste 11 Norte 0 -- -- 80
2020-02-09 10:00:00 6.2 7 Norte 14 Norte 0 -- -- 85
2020-02-09 09:00:00 5.5 3 Nordeste 11 Norte 0 -- -- 90
2020-02-09 08:00:00 5.1 6 Noroeste 15 Norte 0 -- -- 91
2020-02-09 07:00:00 5.2 6 Noroeste 12 Noroeste 0 -- -- 92
2020-02-09 06:00:00 4.6 4 Norte 12 Noroeste 0 -- -- 93
2020-02-09 05:00:00 4.5 8 Norte 14 Norte 0 -- -- 95
2020-02-09 04:00:00 4.4 5 Nordeste 12 Norte 0 -- -- 95
2020-02-09 03:00:00 4.7 6 Norte 10 Noroeste 0 -- -- 93
2020-02-09 02:00:00 5.3 5 Noroeste 11 Noroeste 0 -- -- 93
2020-02-09 01:00:00 5.2 10 Norte 13 Norte 0 -- -- 92
2020-02-09 00:00:00 5.3 4 Noroeste 12 Norte 0 -- -- 92
2020-02-08 23:00:00 5.3 3 Noroeste 10 Norte 0 -- -- 92
2020-02-08 22:00:00 5.4 4 Oeste 6 Noroeste 0 -- -- 90
2020-02-08 21:00:00 6 5 Norte 8 Oeste 0 -- -- 89
2020-02-08 20:00:00 6.6 3 Norte 11 Oeste 0 -- -- 88
2020-02-08 19:00:00 7.6 7 Norte 10 Norte 0 -- -- 84
2020-02-08 18:00:00 8.6 2 Sudoeste 7 Sudeste 0 -- -- 78
2020-02-08 17:00:00 9.1 4 Sudeste 13 Sudeste 0 -- -- 76
2020-02-08 16:00:00 9.8 10 Sudeste 14 Sudeste 0 -- -- 72
2020-02-08 15:00:00 9.9 6 Sudeste 13 Sudeste 0 -- -- 71
2020-02-08 14:00:00 8.8 5 Sudeste 8 Sudeste 0 -- -- 75
2020-02-08 13:00:00 7.2 4 Oeste 9 Oeste 0 -- -- 80
2020-02-08 12:00:00 5.4 3 Noroeste 6 Sur 0 -- -- 83
2020-02-08 11:00:00 3.3 2 Oeste 8 Noroeste 0 -- -- 89
2020-02-08 10:00:00 1.7 6 Noroeste 10 Noroeste 0 -- -- 93
2020-02-08 09:00:00 0.2 8 Norte 12 Noroeste 0 -- -- 96
2020-02-08 08:00:00 -0.3 8 Noroeste 12 Noroeste 0 -- -- 97
2020-02-08 07:00:00 0.1 7 Oeste 10 Noroeste 0 -- -- 97
2020-02-08 06:00:00 0.5 5 Noroeste 13 Norte 0 -- -- 97
2020-02-08 05:00:00 0.5 6 Noroeste 12 Noroeste 0 -- -- 95
2020-02-08 04:00:00 0.2 8 Noroeste 13 Norte 0 -- -- 96
2020-02-08 03:00:00 1.1 8 Noroeste 14 Noroeste 0 -- -- 95
2020-02-08 02:00:00 1.8 7 Noroeste 12 Noroeste 0 -- -- 93
2020-02-08 01:00:00 2 8 Norte 11 Norte 0 -- -- 92
2020-02-08 00:00:00 2.8 9 Noroeste 13 Noroeste 0 -- -- 94
2020-02-07 23:00:00 3.5 6 Noroeste 12 Oeste 0 -- -- 92
2020-02-07 22:00:00 4.5 6 Noroeste 12 Noroeste 0 -- -- 89
2020-02-07 21:00:00 5.4 9 Noroeste 12 Norte 0 -- -- 86
2020-02-07 20:00:00 7.2 4 Nordeste 13 Sudeste 0 -- -- 82
2020-02-07 19:00:00 8.2 9 Sudeste 17 Sudeste 0 -- -- 78
2020-02-07 18:00:00 9.8 13 Sudeste 21 Sudeste 0 -- -- 73
2020-02-07 17:00:00 12.4 14 Sudeste 19 Sudeste 0 -- -- 58
2020-02-07 16:00:00 13 10 Sudeste 13 Sudeste 0 -- -- 46
2020-02-07 15:00:00 12.4 11 Sudeste 14 Sudeste 0 -- -- 52
2020-02-07 14:00:00 12 8 Sudeste 13 Sudeste 0 -- -- 48
2020-02-07 13:00:00 10.4 8 Sudeste 12 Sudeste 0 -- -- 52
2020-02-07 12:00:00 8.4 2 Sudoeste 10 Este 0 -- -- 54
2020-02-07 11:00:00 5.4 5 Este 9 Este 0 -- -- 67
2020-02-07 10:00:00 2.1 3 Oeste 10 Noroeste 0 -- -- 80
2020-02-07 09:00:00 0 5 Noroeste 10 Oeste 0 -- -- 82
2020-02-07 08:00:00 -0.6 5 Noroeste 10 Norte 0 -- -- 85
2020-02-07 07:00:00 -0.2 8 Noroeste 11 Noroeste 0 -- -- 82
2020-02-07 06:00:00 -0.3 7 Noroeste 9 Norte 0 -- -- 83
2020-02-07 05:00:00 0.4 4 Noroeste 10 Noroeste 0 -- -- 79
2020-02-07 04:00:00 0.9 5 Noroeste 15 Noroeste 0 -- -- 77
2020-02-07 03:00:00 0.6 12 Noroeste 13 Noroeste 0 -- -- 78
2020-02-07 02:00:00 1.1 7 Noroeste 13 Noroeste 0 -- -- 76
2020-02-07 01:00:00 1.8 6 Noroeste 15 Oeste 0 -- -- 72
2020-02-07 00:00:00 2.6 5 Oeste 12 Noroeste 0 -- -- 71
2020-02-06 23:00:00 2.9 8 Noroeste 17 Noroeste 0 -- -- 69
2020-02-06 22:00:00 4 6 Noroeste 13 Noroeste 0 -- -- 68
2020-02-06 21:00:00 4.4 9 Noroeste 14 Oeste 0 -- -- 69
2020-02-06 20:00:00 6.6 8 Noroeste 13 Noroeste 0 -- -- 60
2020-02-06 19:00:00 9.3 5 Nordeste 18 Sudeste 0 -- -- 61
2020-02-06 18:00:00 11.6 17 Sudeste 22 Sudeste 0 -- -- 54
2020-02-06 17:00:00 14.2 15 Sudeste 18 Sudeste 0 -- -- 35
2020-02-06 16:00:00 15.4 10 Sudeste 14 Sudeste 0 -- -- 18
2020-02-06 15:00:00 14.7 12 Sudeste 16 Sudeste 0 -- -- 32
2020-02-06 14:00:00 13.7 12 Sudeste 15 Sudeste 0 -- -- 37
2020-02-06 13:00:00 11.3 7 Sudeste 9 Sudeste 0 -- -- 41
2020-02-06 12:00:00 9.3 4 Sudeste 8 Sur 0 -- -- 48
2020-02-06 11:00:00 5.7 4 Sur 8 Sudeste 0 -- -- 63
2020-02-06 10:00:00 2 3 Oeste 8 Oeste 0 -- -- 74
2020-02-06 09:00:00 -0.6 6 Noroeste 14 Noroeste 0 -- -- 79
2020-02-06 08:00:00 -1.2 8 Noroeste 13 Oeste 0 -- -- 83
2020-02-06 07:00:00 -1.7 5 Noroeste 10 Norte 0 -- -- 87
2020-02-06 06:00:00 -1.1 8 Norte 11 Norte 0 -- -- 86
2020-02-06 05:00:00 -0.7 6 Norte 10 Noroeste 0 -- -- 84
2020-02-06 04:00:00 0.1 7 Norte 11 Noroeste 0 -- -- 81
2020-02-06 03:00:00 0.6 5 Noroeste 13 Norte 0 -- -- 80
2020-02-06 02:00:00 1 4 Noroeste 12 Norte 0 -- -- 80
2020-02-06 01:00:00 1.2 8 Norte 10 Noroeste 0 -- -- 80
2020-02-06 00:00:00 2.9 3 Oeste 14 Norte 0 -- -- 74
2020-02-05 23:00:00 3.4 8 Noroeste 15 Noroeste 0 -- -- 73
2020-02-05 22:00:00 3.5 10 Noroeste 14 Noroeste 0 -- -- 75
2020-02-05 21:00:00 5 6 Noroeste 15 Norte 0 -- -- 70
2020-02-05 20:00:00 6.5 5 Oeste 14 Oeste 0 -- -- 65
2020-02-05 19:00:00 8.6 8 Noroeste 15 Noroeste 0 -- -- 61
2020-02-05 18:00:00 12.1 7 Sudeste 15 Sudeste 0 -- -- 53
2020-02-05 17:00:00 13.6 9 Sudeste 15 Sudeste 0 -- -- 43
2020-02-05 16:00:00 13.7 13 Sudeste 15 Sudeste 0 -- -- 38
2020-02-05 15:00:00 14 6 Sudeste 9 Sudeste 0 -- -- 30
2020-02-05 14:00:00 12.7 6 Sudeste 11 Sudeste 0 -- -- 37
2020-02-05 13:00:00 11.1 6 Sudeste 10 Sudeste 0 -- -- 43
2020-02-05 12:00:00 9.1 5 Sudeste 10 Sudeste 0 -- -- 41
2020-02-05 11:00:00 5.5 2 Noroeste 8 Nordeste 0 -- -- 54
2020-02-05 10:00:00 2.5 0 Calma 9 Este 0 -- -- 68
2020-02-05 09:00:00 -0.5 2 Norte 6 Sudeste 0 -- -- 80
2020-02-05 08:00:00 -0.3 5 Norte 10 Norte 0 -- -- 69
2020-02-05 07:00:00 0.8 6 Noroeste 14 Norte 0 -- -- 61
2020-02-05 06:00:00 1.2 8 Norte 17 Norte 0 -- -- 62
2020-02-05 05:00:00 2.4 6 Noroeste 11 Noroeste 0 -- -- 61
2020-02-05 04:00:00 2.4 8 Noroeste 11 Norte 0 -- -- 73
2020-02-05 03:00:00 3.3 3 Oeste 11 Norte 0 -- -- 73
2020-02-05 02:00:00 4.1 4 Sudeste 16 Sudeste 0 -- -- 73
2020-02-05 01:00:00 5.5 13 Sudeste 22 Sudeste 0 -- -- 66
2020-02-05 00:00:00 7.2 12 Este 24 Este 0 -- -- 54
2020-02-04 23:00:00 10.4 11 Sudeste 52 Oeste 0 -- -- 39
2020-02-04 22:00:00 13.4 33 Oeste 47 Oeste 0 -- -- 19
2020-02-04 21:00:00 12.9 26 Oeste 49 Norte 0 -- -- 22
2020-02-04 20:00:00 13 26 Oeste 39 Oeste 0 -- -- 25
2020-02-04 19:00:00 14.5 19 Oeste 33 Noroeste 0 -- -- 23
2020-02-04 18:00:00 16 18 Noroeste 54 Norte 0 -- -- 21
2020-02-04 12:00:00 -- -- -- -- -- -- -- -- --
2020-02-04 11:00:00 11.3 5 Este 14 Nordeste 0 -- -- 72
2020-02-04 10:00:00 7.2 6 Sudeste 20 Nordeste 0 -- -- 84
2020-02-04 09:00:00 4.1 7 Nordeste 15 Nordeste 0 -- -- 91
2020-02-04 08:00:00 3.8 8 Norte 13 Norte 0 -- -- 91
2020-02-04 07:00:00 4.2 6 Norte 14 Norte 0 -- -- 90
2020-02-04 06:00:00 4.6 5 Noroeste 12 Norte 0 -- -- 90
2020-02-04 05:00:00 4.8 7 Norte 12 Norte 0 -- -- 89
2020-02-04 04:00:00 5 7 Noroeste 12 Noroeste 0 -- -- 88
2020-02-04 03:00:00 5.9 2 Noroeste 12 Norte 0 -- -- 85
2020-02-04 02:00:00 6.2 8 Oeste 12 Oeste 0 -- -- 86
2020-02-04 01:00:00 6.9 8 Noroeste 15 Noroeste 0 -- -- 84
2020-02-04 00:00:00 7.7 9 Noroeste 14 Noroeste 0 -- -- 81
2020-02-03 23:00:00 8.3 10 Noroeste 14 Norte 0 -- -- 79
2020-02-03 22:00:00 9.4 9 Noroeste 13 Noroeste 0 -- -- 78
2020-02-03 21:00:00 10.4 9 Noroeste 14 Norte 0 -- -- 76
2020-02-03 20:00:00 11.6 9 Noroeste 14 Oeste 0 -- -- 74
2020-02-03 19:00:00 14 9 Norte 13 Norte 0 -- -- 66
2020-02-03 18:00:00 17 4 Este 11 Sudeste 0 -- -- 61
2020-02-03 17:00:00 19.1 8 Sudeste 10 Sudeste 0 -- -- 51
2020-02-03 16:00:00 19.4 6 Sudeste 9 Sudeste 0 -- -- 47
2020-02-03 15:00:00 18.5 3 Este 5 Este 0 -- -- 52
2020-02-03 14:00:00 17.6 4 Sudeste 8 Sudeste 0 -- -- 51
2020-02-03 13:00:00 15.7 3 Sudeste 7 Sur 0 -- -- 58
2020-02-03 12:00:00 12.6 3 Sudoeste 6 Sudoeste 0 -- -- 76
2020-02-03 11:00:00 9.3 2 Sudoeste 6 Norte 0 -- -- 88
2020-02-03 10:00:00 6.4 0 Calma 12 Noroeste 0 -- -- 97
2020-02-03 09:00:00 4.6 8 Norte 15 Norte 0 -- -- 98
2020-02-03 08:00:00 4.9 8 Norte 13 Norte 0 -- -- 98
2020-02-03 07:00:00 5.4 6 Noroeste 12 Norte 0 -- -- 96
2020-02-03 06:00:00 5.7 8 Noroeste 13 Oeste 0 -- -- 96
2020-02-03 05:00:00 6.3 7 Noroeste 15 Noroeste 0 -- -- 99
2020-02-03 04:00:00 6.3 8 Norte 10 Norte 0 -- -- 97
2020-02-03 03:00:00 7.8 4 Oeste 16 Norte 0 -- -- 96
2020-02-03 02:00:00 7.7 8 Noroeste 17 Norte 0 -- -- 94
2020-02-03 01:00:00 8.5 6 Noroeste 13 Norte 0 -- -- 96
2020-02-03 00:00:00 9.2 8 Noroeste 9 Noroeste 0 -- -- 92
2020-02-02 23:00:00 10.2 8 Noroeste 19 Noroeste 0 -- -- 90
2020-02-02 22:00:00 10.4 8 Noroeste 12 Noroeste 0 -- -- 89
2020-02-02 21:00:00 11.3 6 Noroeste 15 Noroeste 0 -- -- 87
2020-02-02 20:00:00 12.2 11 Noroeste 16 Norte 0 -- -- 87
2020-02-02 19:00:00 14.6 3 Norte 13 Sudeste 0 -- -- 81
2020-02-02 18:00:00 16.1 13 Sudeste 15 Sudeste 0 -- -- 76
2020-02-02 17:00:00 18.4 12 Sudeste 15 Sudeste 0 -- -- 64
2020-02-02 16:00:00 18.5 12 Sudeste 17 Sudeste 0 -- -- 60
2020-02-02 15:00:00 18.2 11 Sudeste 14 Sudeste 0 -- -- 56
2020-02-02 14:00:00 16.9 10 Sudeste 12 Sudeste 0 -- -- 59
2020-02-02 13:00:00 16.3 4 Sudeste 7 Este 0 -- -- 60
2020-02-02 12:00:00 13.8 3 Sudoeste 8 Oeste 0 -- -- 67
2020-02-02 11:00:00 10.2 2 Oeste 8 Este 0 -- -- 79
2020-02-02 10:00:00 7 2 Noroeste 9 Oeste 0 -- -- 91
2020-02-02 09:00:00 4.7 5 Oeste 12 Norte 0 -- -- 94
2020-02-02 08:00:00 4.9 4 Noroeste 9 Noroeste 0 -- -- 95
2020-02-02 07:00:00 5.1 0 Calma 16 Norte 0 -- -- 93
2020-02-02 06:00:00 6.3 8 Noroeste 16 Noroeste 0 -- -- 86
2020-02-02 05:00:00 6.2 9 Noroeste 16 Noroeste 0 -- -- 88
2020-02-02 04:00:00 6.1 9 Noroeste 15 Noroeste 0 -- -- 88
2020-02-02 03:00:00 6.1 9 Noroeste 15 Norte 0 -- -- 91
2020-02-02 02:00:00 7 6 Noroeste 19 Norte 0 -- -- 87
2020-02-02 01:00:00 7.3 12 Noroeste 19 Norte 0 -- -- 84
2020-02-02 00:00:00 7.5 4 Noroeste 17 Noroeste 0 -- -- 85
2020-02-01 23:00:00 7.7 6 Noroeste 19 Norte 0 -- -- 85
2020-02-01 22:00:00 9 9 Norte 17 Norte 0 -- -- 82
2020-02-01 21:00:00 10.1 14 Norte 20 Norte 0 -- -- 79
2020-02-01 20:00:00 11.5 15 Norte 22 Norte 0 -- -- 79
2020-02-01 19:00:00 13.3 18 Norte 21 Norte 0 -- -- 75
2020-02-01 18:00:00 16.9 5 Oeste 10 Sudeste 0 -- -- 55
2020-02-01 17:00:00 17.8 8 Sudeste 10 Sudeste 0 -- -- 58
2020-02-01 16:00:00 18.3 5 Sudeste 14 Sudeste 0 -- -- 60
2020-02-01 15:00:00 17.3 10 Sudeste 13 Sudeste 0 -- -- 63
2020-02-01 14:00:00 17.4 6 Sudeste 13 Sudeste 0 -- -- 62
2020-02-01 13:00:00 15.4 6 Este 10 Sudeste 0 -- -- 69
2020-02-01 12:00:00 12.4 3 Oeste 8 Este 0 -- -- 78
2020-02-01 11:00:00 9.6 4 Sudeste 10 Este 0 -- -- 86
2020-02-01 10:00:00 6.4 3 Oeste 7 Norte 0 -- -- 98
2020-02-01 09:00:00 5.4 4 Norte 6 Oeste 0 -- -- 99
2020-02-01 08:00:00 5.1 5 Noroeste 6 Noroeste 0 -- -- 98
2020-02-01 07:00:00 5.2 3 Norte 6 Norte 0 -- -- 99
2020-02-01 06:00:00 4.9 2 Sudeste 6 Sudoeste 0 -- -- 99
2020-02-01 05:00:00 5.1 5 Noroeste 8 Oeste 0 -- -- 98
2020-02-01 04:00:00 5.2 4 Noroeste 13 Norte 0 -- -- 98
2020-02-01 03:00:00 5.1 7 Noroeste 14 Norte 0 -- -- 98
2020-02-01 02:00:00 5.6 8 Noroeste 13 Norte 0 -- -- 97
2020-02-01 01:00:00 5.9 9 Oeste 13 Oeste 0 -- -- 96
2020-02-01 00:00:00 6.8 7 Noroeste 10 Norte 0 -- -- 95
2020-01-31 23:00:00 7.3 5 Noroeste 11 Norte 0 -- -- 96
2020-01-31 22:00:00 8 7 Noroeste 14 Oeste 0 -- -- 95
2020-01-31 21:00:00 8.8 12 Oeste 15 Oeste 0 -- -- 91
2020-01-31 20:00:00 10.2 5 Noroeste 14 Oeste 0 -- -- 87
2020-01-31 19:00:00 12.1 0 Calma 16 Sur 0 -- -- 80
2020-01-31 18:00:00 12.9 15 Sudeste 24 Sudeste 0 -- -- 77
2020-01-31 17:00:00 14 19 Sudeste 24 Sudeste 0 -- -- 72
2020-01-31 16:00:00 16.1 17 Sudeste 21 Sudeste 0 -- -- 65
2020-01-31 15:00:00 16.5 11 Sudeste 16 Sudeste 0 -- -- 61
2020-01-31 14:00:00 16.2 9 Sudeste 11 Sudeste 0 -- -- 62
2020-01-31 13:00:00 14.9 5 Sudeste 10 Sudeste 0 -- -- 65
2020-01-31 12:00:00 12.6 7 Sudeste 10 Sudeste 0 -- -- 73
2020-01-31 11:00:00 10.6 3 Este 9 Este 0 -- -- 84
2020-01-31 10:00:00 7.9 3 Oeste 8 Noroeste 0 -- -- 92
2020-01-31 09:00:00 6.3 0 Calma 6 Noroeste 0 -- -- 97
2020-01-31 08:00:00 6.5 4 Oeste 9 Norte 0 -- -- 97
2020-01-31 07:00:00 6.7 0 Calma 9 Oeste 0 -- -- 95
2020-01-31 06:00:00 6.6 4 Oeste 12 Norte 0 -- -- 96
2020-01-31 05:00:00 6.2 4 Noroeste 9 Norte 0 -- -- 98
2020-01-31 04:00:00 5.8 5 Norte 11 Norte 0 -- -- 98
2020-01-31 03:00:00 6.4 4 Noroeste 15 Norte 0 -- -- 97
2020-01-31 02:00:00 6.6 7 Noroeste 13 Norte 0 -- -- 96
2020-01-31 01:00:00 6.9 8 Norte 13 Norte 0 -- -- 96
2020-01-31 00:00:00 7.4 9 Noroeste 12 Norte 0 -- -- 95
2020-01-30 23:00:00 7.9 5 Noroeste 12 Noroeste 0 -- -- 94
2020-01-30 22:00:00 8.5 6 Noroeste 13 Norte 0 -- -- 94
2020-01-30 21:00:00 9.6 5 Noroeste 13 Noroeste 0 -- -- 91
2020-01-30 20:00:00 10.5 4 Norte 7 Noroeste 0 -- -- 88
2020-01-30 19:00:00 11.1 6 Norte 11 Oeste 0 -- -- 87
2020-01-30 18:00:00 13 0 Calma 6 Este 0 -- -- 79
2020-01-30 17:00:00 13.4 4 Nordeste 12 Sudeste 0 -- -- 79
2020-01-30 16:00:00 14.3 7 Sudeste 12 Sudeste 0 -- -- 75
2020-01-30 15:00:00 13.6 9 Sudeste 14 Este 0 -- -- 75
2020-01-30 14:00:00 14.1 5 Este 11 Este 0 -- -- 70
2020-01-30 13:00:00 11.8 3 Sudoeste 6 Sudoeste 0 -- -- 75
2020-01-30 12:00:00 11.5 4 Este 10 Sur 0 -- -- 77
2020-01-30 11:00:00 8 3 Nordeste 8 Oeste 0 -- -- 91
2020-01-30 10:00:00 6.2 3 Noroeste 12 Oeste 0 -- -- 96
2020-01-30 09:00:00 5.7 7 Oeste 10 Oeste 0 -- -- 96
2020-01-30 08:00:00 5.8 4 Oeste 13 Norte 0 -- -- 94
2020-01-30 07:00:00 5.8 6 Noroeste 12 Noroeste 0 -- -- 96
2020-01-30 06:00:00 6 8 Norte 11 Noroeste 0 -- -- 93
2020-01-30 05:00:00 6 9 Norte 13 Norte 0 -- -- 94
2020-01-30 04:00:00 6.4 4 Norte 12 Norte 0 -- -- 91
2020-01-30 03:00:00 6.9 8 Norte 13 Noroeste 0 -- -- 90
2020-01-30 02:00:00 6.7 9 Norte 13 Norte 0 -- -- 91
2020-01-30 01:00:00 7 8 Norte 12 Norte 0 -- -- 89
2020-01-30 00:00:00 7.6 5 Norte 12 Norte 0 -- -- 86
2020-01-29 23:00:00 8.2 6 Norte 9 Norte 0 -- -- 85
2020-01-29 22:00:00 8.6 11 Norte 15 Norte 0 -- -- 83
2020-01-29 21:00:00 8.9 10 Norte 21 Norte 0 -- -- 82
2020-01-29 20:00:00 10.2 9 Norte 15 Norte 0 -- -- 78
2020-01-29 19:00:00 11.7 3 Este 15 Oeste 0 -- -- 73
2020-01-29 18:00:00 13.9 2 Noroeste 15 Sudoeste 0 -- -- 63
2020-01-29 17:00:00 14 5 Sudoeste 14 Oeste 0 -- -- 62
2020-01-29 16:00:00 14.6 10 Sudeste 12 Sudeste 0 -- -- 56
2020-01-29 15:00:00 14.4 4 Sudeste 9 Sudeste 0 -- -- 54
2020-01-29 14:00:00 12.7 5 Sudeste 8 Sudeste 0 -- -- 57
2020-01-29 13:00:00 10.1 4 Sudeste 12 Sudeste 0 -- -- 62
2020-01-29 12:00:00 8.9 4 Sudeste 9 Sur 0 -- -- 71
2020-01-29 11:00:00 4.5 4 Noroeste 7 Sur 0 -- -- 81
2020-01-29 10:00:00 1.7 4 Norte 13 Oeste 0 -- -- 91
2020-01-29 09:00:00 0.7 4 Noroeste 12 Noroeste 0 -- -- 91
2020-01-29 08:00:00 0 8 Noroeste 14 Noroeste 0 -- -- 93
2020-01-29 07:00:00 0.4 6 Noroeste 12 Norte 0 -- -- 92
2020-01-29 06:00:00 0.6 5 Oeste 16 Noroeste 0 -- -- 93
2020-01-29 05:00:00 1.2 5 Noroeste 14 Noroeste 0 -- -- 90
2020-01-29 04:00:00 1.8 7 Noroeste 12 Oeste 0 -- -- 88
2020-01-29 03:00:00 1.8 6 Noroeste 14 Norte 0 -- -- 89
2020-01-29 02:00:00 2.3 5 Noroeste 17 Norte 0 -- -- 88
2020-01-29 01:00:00 2.5 11 Noroeste 16 Norte 0 -- -- 88
2020-01-29 00:00:00 3 8 Noroeste 15 Noroeste 0 -- -- 87
2020-01-28 23:00:00 3.7 12 Noroeste 19 Norte 0 -- -- 85
2020-01-28 22:00:00 4.4 10 Norte 18 Noroeste 0 -- -- 84
2020-01-28 21:00:00 5.7 17 Norte 25 Noroeste 0 -- -- 81
2020-01-28 20:00:00 7.4 13 Norte 20 Noroeste 0 -- -- 74
2020-01-28 19:00:00 9.9 11 Oeste 26 Sudoeste 0 -- -- 58
2020-01-28 18:00:00 12 21 Sudoeste 30 Sudoeste 0 -- -- 50
2020-01-28 17:00:00 14.4 18 Sudoeste 26 Sudoeste 0 -- -- 44
2020-01-28 16:00:00 14.9 18 Oeste 37 Sudoeste 0 -- -- 47
2020-01-28 15:00:00 14.7 19 Sudoeste 35 Oeste 0 -- -- 52
2020-01-28 14:00:00 12.2 9 Sudeste 15 Sudeste 0 -- -- 75
2020-01-28 13:00:00 9 5 Sudeste 9 Sudeste 0 -- -- 100
2020-01-28 12:00:00 6.4 3 Sur 10 Sudoeste 0 -- -- 100
2020-01-28 11:00:00 5.2 2 Este 8 Sur 0 -- -- 100
2020-01-28 10:00:00 4.7 0 Calma 9 Este 0 -- -- 100
2020-01-28 09:00:00 4.5 3 Oeste 6 Oeste 0 -- -- 100
2020-01-28 08:00:00 4.7 0 Calma 8 Oeste 0 -- -- 100
2020-01-28 07:00:00 4.8 5 Oeste 6 Oeste 0 -- -- 100
2020-01-28 06:00:00 5.1 0 Calma 7 Oeste 0.2 -- -- 100
2020-01-28 05:00:00 5.1 4 Noroeste 5 Noroeste 0.4 -- -- 100
2020-01-28 04:00:00 5.3 2 Norte 8 Oeste 0 -- -- 100
2020-01-28 03:00:00 5.2 5 Noroeste 10 Oeste 0 -- -- 100
2020-01-28 02:00:00 5 3 Oeste 8 Noroeste 0 -- -- 100
2020-01-28 01:00:00 4.9 4 Noroeste 10 Oeste 0 -- -- 100
2020-01-28 00:00:00 5 3 Noroeste 5 Sur 0 -- -- 100
2020-01-27 23:00:00 5.1 2 Norte 5 Sudoeste 0 -- -- 100
2020-01-27 22:00:00 5.4 4 Norte 6 Norte 0 -- -- 99
2020-01-27 21:00:00 5.6 3 Norte 8 Norte 0.2 -- -- 98
2020-01-27 20:00:00 5.8 3 Noroeste 8 Noroeste 0 -- -- 97
2020-01-27 19:00:00 6.2 3 Noroeste 10 Norte 0.2 -- -- 95
2020-01-27 18:00:00 6.8 3 Norte 11 Sudeste 0.2 -- -- 89
2020-01-27 17:00:00 7.4 9 Sudeste 16 Sudeste 0 -- -- 85
2020-01-27 16:00:00 8 8 Sudeste 14 Sudeste 0 -- -- 75
2020-01-27 15:00:00 8.5 5 Sudeste 8 Este 0 -- -- 71
2020-01-27 14:00:00 7 2 Este 7 Sudeste 0 -- -- 77
2020-01-27 13:00:00 5.8 4 Sudoeste 7 Sudeste 0 -- -- 86
2020-01-27 12:00:00 3.7 4 Este 7 Nordeste 0 -- -- 100
2020-01-27 11:00:00 1.7 2 Sudoeste 6 Sudeste 0.2 -- -- 100
2020-01-27 10:00:00 0.4 3 Este 6 Oeste 0 -- -- 100
2020-01-27 09:00:00 -0.3 2 Oeste 8 Noroeste 0 -- -- 100
2020-01-27 08:00:00 -0.3 5 Noroeste 8 Noroeste 0 -- -- 100
2020-01-27 07:00:00 -0.1 4 Oeste 8 Noroeste 0 -- -- 100
2020-01-27 06:00:00 -0.2 8 Noroeste 10 Noroeste 0 -- -- 100
2020-01-27 05:00:00 -0.3 4 Noroeste 8 Noroeste 0 -- -- 99
2020-01-27 04:00:00 0.8 5 Norte 10 Noroeste 0 -- -- 98
2020-01-27 03:00:00 1.4 6 Noroeste 11 Norte 0 -- -- 99
2020-01-27 02:00:00 2 6 Noroeste 8 Norte 0 -- -- 98
2020-01-27 01:00:00 2.9 0 Calma 8 Oeste 0 -- -- 98
2020-01-27 00:00:00 3.3 4 Oeste 6 Oeste 0 -- -- 95
2020-01-26 23:00:00 3.8 5 Noroeste 9 Oeste 0 -- -- 95
2020-01-26 22:00:00 5 2 Noroeste 6 Oeste 0 -- -- 92
2020-01-26 21:00:00 5.7 5 Oeste 10 Noroeste 0 -- -- 89
2020-01-26 20:00:00 6 9 Oeste 11 Oeste 0 -- -- 87
2020-01-26 19:00:00 7.1 3 Norte 13 Oeste 0 -- -- 79
2020-01-26 18:00:00 8.3 8 Oeste 13 Oeste 0 -- -- 75
2020-01-26 17:00:00 9.6 10 Sudoeste 17 Oeste 0 -- -- 72
2020-01-26 16:00:00 10 10 Sudoeste 16 Sudoeste 0 -- -- 75
2020-01-26 15:00:00 10.1 9 Sudeste 14 Sudeste 0 -- -- 79
2020-01-26 14:00:00 10.4 5 Sudeste 9 Sudeste 0 -- -- 80
2020-01-26 13:00:00 8.5 3 Sudeste 6 Sudeste 0 -- -- 83
2020-01-26 12:00:00 6.7 4 Sudeste 7 Sur 0 -- -- 93
2020-01-26 11:00:00 5.1 0 Calma 5 Oeste 0 -- -- 98
2020-01-26 10:00:00 4.2 4 Oeste 6 Sudoeste 0 -- -- 99
2020-01-26 09:00:00 3.8 2 Norte 8 Oeste 0 -- -- 99
2020-01-26 08:00:00 3.7 5 Noroeste 10 Oeste 0.8 -- -- 99
2020-01-26 07:00:00 3.7 5 Noroeste 10 Noroeste 0.6 -- -- 99
2020-01-26 06:00:00 3.8 6 Oeste 16 Oeste 0.6 -- -- 99
2020-01-26 05:00:00 4 12 Noroeste 14 Oeste 0.2 -- -- 98
2020-01-26 04:00:00 4.3 9 Oeste 13 Oeste 1 -- -- 100
2020-01-26 03:00:00 4.9 5 Oeste 6 Oeste 2.6 -- -- 99
2020-01-26 02:00:00 5.2 0 Calma 17 Oeste 1.6 -- -- 98
2020-01-26 01:00:00 5.3 4 Sudoeste 9 Oeste 0.4 -- -- 98
2020-01-26 00:00:00 5.5 8 Norte 13 Norte 0.6 -- -- 98
2020-01-25 23:00:00 5.6 3 Noroeste 8 Norte 0 -- -- 94
2020-01-25 22:00:00 5.8 3 Noroeste 10 Noroeste 0 -- -- 94
2020-01-25 21:00:00 5.9 7 Oeste 10 Noroeste 0 -- -- 93
2020-01-25 20:00:00 6.1 5 Noroeste 9 Noroeste 0 -- -- 92
2020-01-25 19:00:00 6.3 8 Noroeste 13 Oeste 0 -- -- 90
2020-01-25 18:00:00 6.7 11 Oeste 13 Oeste 0 -- -- 89
2020-01-25 17:00:00 7.7 8 Oeste 10 Oeste 0 -- -- 89
2020-01-25 16:00:00 8 5 Noroeste 8 Noroeste 0 -- -- 90
2020-01-25 15:00:00 7.5 4 Noroeste 12 Oeste 0 -- -- 96
2020-01-25 14:00:00 6.6 6 Oeste 10 Oeste 0.2 -- -- 96
2020-01-25 13:00:00 6.3 0 Calma 5 Sudoeste 0 -- -- 96
2020-01-25 12:00:00 5.8 2 Oeste 6 Noroeste 0 -- -- 98
2020-01-25 11:00:00 5.4 3 Oeste 6 Noroeste 0 -- -- 98
2020-01-25 10:00:00 4.8 2 Oeste 5 Noroeste 0 -- -- 99
2020-01-25 09:00:00 4.5 3 Noroeste 9 Noroeste 0 -- -- 98
2020-01-25 08:00:00 4.6 6 Oeste 8 Noroeste 0 -- -- 98
2020-01-25 07:00:00 4.6 4 Oeste 8 Noroeste 0 -- -- 97
2020-01-25 06:00:00 4.8 6 Noroeste 9 Noroeste 0 -- -- 96
2020-01-25 05:00:00 4.8 4 Oeste 9 Norte 0 -- -- 97
2020-01-25 04:00:00 4.9 0 Calma 10 Oeste 0 -- -- 96
2020-01-25 03:00:00 4.7 8 Oeste 19 Norte 0 -- -- 97
2020-01-25 02:00:00 4.9 9 Noroeste 17 Noroeste 0.4 -- -- 97
2020-01-25 01:00:00 4.8 9 Norte 13 Nordeste 1 -- -- 96
2020-01-25 00:00:00 5 7 Oeste 13 Oeste 0 -- -- 93
2020-01-24 23:00:00 4.9 8 Oeste 11 Oeste 0 -- -- 93
2020-01-24 22:00:00 4.9 5 Noroeste 12 Oeste 0 -- -- 95
2020-01-24 21:00:00 5.4 4 Norte 9 Oeste 0 -- -- 93
2020-01-24 20:00:00 6 10 Oeste 13 Oeste 0 -- -- 90
2020-01-24 19:00:00 6.6 4 Oeste 12 Norte 0 -- -- 88
2020-01-24 18:00:00 8.4 6 Oeste 8 Oeste 0 -- -- 80
2020-01-24 17:00:00 10.4 4 Sudeste 6 Sur 0 -- -- 62
2020-01-24 16:00:00 11.6 4 Sudeste 9 Sudeste 0 -- -- 62
2020-01-24 15:00:00 11.5 6 Sudeste 8 Sudeste 0 -- -- 59
2020-01-24 14:00:00 11.3 3 Sur 10 Sur 0 -- -- 68
2020-01-24 13:00:00 9.5 2 Oeste 9 Sudoeste 0 -- -- 80
2020-01-24 12:00:00 7.7 3 Sudeste 6 Sudeste 0 -- -- 88
2020-01-24 11:00:00 5.8 3 Sudoeste 6 Este 0 -- -- 96
2020-01-24 10:00:00 4.2 0 Calma 7 Oeste 0 -- -- 99
2020-01-24 09:00:00 3.4 6 Noroeste 12 Oeste 0 -- -- 100
2020-01-24 08:00:00 2.9 5 Oeste 8 Oeste 0 -- -- 100
2020-01-24 07:00:00 3 2 Sudeste 6 Sur 0 -- -- 100
2020-01-24 06:00:00 3.1 3 Sur 8 Nordeste 0 -- -- 99
2020-01-24 05:00:00 3.2 0 Calma 15 Norte 0 -- -- 99
2020-01-24 04:00:00 3.1 6 Norte 12 Noroeste 0 -- -- 100
2020-01-24 03:00:00 3.1 3 Noroeste 9 Oeste 0 -- -- 100
2020-01-24 02:00:00 3 5 Oeste 11 Norte 0 -- -- 100
2020-01-24 01:00:00 2.9 7 Noroeste 10 Oeste 0 -- -- 99
2020-01-24 00:00:00 3.2 7 Norte 12 Norte 0 -- -- 99
2020-01-23 23:00:00 3 0 Calma 14 Norte 0 -- -- 99
2020-01-23 22:00:00 2.9 8 Noroeste 16 Norte 0 -- -- 99
2020-01-23 21:00:00 2.9 11 Norte 15 Norte 0 -- -- 99
2020-01-23 20:00:00 3 3 Oeste 19 Norte 0 -- -- 99
2020-01-23 19:00:00 3.3 8 Noroeste 11 Oeste 0 -- -- 99
2020-01-23 18:00:00 3.8 9 Oeste 15 Norte 0 -- -- 98
2020-01-23 17:00:00 4.7 9 Norte 14 Norte 0 -- -- 99
2020-01-23 16:00:00 4.8 5 Sudoeste 9 Sudeste 0.6 -- -- 100
2020-01-23 15:00:00 5.1 0 Calma 8 Nordeste 1.2 -- -- 100
2020-01-23 14:00:00 4.9 5 Sudeste 12 Este 2 -- -- 100
2020-01-23 13:00:00 4.9 2 Este 7 Sudeste 1.8 -- -- 100
2020-01-23 12:00:00 4.8 5 Este 8 Sudeste 1 -- -- 100
2020-01-23 11:00:00 4.2 8 Sudeste 13 Sudeste 0 -- -- 100
2020-01-23 10:00:00 3.5 9 Oeste 20 Oeste 0 -- -- 100
2020-01-23 09:00:00 3.4 8 Oeste 12 Noroeste 0.6 -- -- 100
2020-01-23 08:00:00 3.2 9 Noroeste 24 Oeste 3 -- -- 100
2020-01-23 07:00:00 3.1 9 Oeste 24 Noroeste 5.8 -- -- 100
2020-01-23 06:00:00 2.6 9 Este 18 Este 3.6 -- -- 100
2020-01-23 05:00:00 2.5 5 Oeste 12 Este 2.6 -- -- 100
2020-01-23 04:00:00 2.2 2 Sudoeste 10 Noroeste 0.4 -- -- 100
2020-01-23 03:00:00 2 5 Oeste 6 Oeste 3 -- -- 100
2020-01-23 02:00:00 1.8 5 Noroeste 12 Oeste 1.6 -- -- 100
2020-01-23 01:00:00 1.9 8 Oeste 13 Oeste 2.6 -- -- 99
2020-01-23 00:00:00 2 11 Oeste 18 Oeste 3.4 -- -- 99
2020-01-22 23:00:00 2.5 12 Oeste 18 Oeste 4.2 -- -- 99
2020-01-22 22:00:00 3 8 Oeste 16 Norte 4.2 -- -- 99
2020-01-22 21:00:00 3.4 10 Norte 16 Norte 4.8 -- -- 99
2020-01-22 20:00:00 4 4 Oeste 14 Oeste 6 -- -- 98
2020-01-22 19:00:00 4.7 10 Oeste 12 Oeste 6.2 -- -- 97
2020-01-22 18:00:00 5.8 2 Este 17 Sudeste 7.2 -- -- 96
2020-01-22 17:00:00 6.6 12 Sudeste 15 Sudeste 2.6 -- -- 94
2020-01-22 16:00:00 7.7 6 Sudeste 15 Sudeste 1 -- -- 93
2020-01-22 15:00:00 8.1 10 Este 14 Este 1.4 -- -- 89
2020-01-22 14:00:00 10.4 5 Oeste 12 Oeste 0 -- -- 72
2020-01-22 13:00:00 10.3 3 Sudoeste 9 Sudoeste 0 -- -- 73
2020-01-22 12:00:00 8.2 3 Sudoeste 10 Noroeste 0 -- -- 87
2020-01-22 11:00:00 6.1 4 Noroeste 8 Noroeste 0 -- -- 93
2020-01-22 10:00:00 4.3 3 Oeste 6 Oeste 0 -- -- 97
2020-01-22 09:00:00 3 3 Oeste 5 Noroeste 0 -- -- 98
2020-01-22 08:00:00 2.8 5 Oeste 10 Noroeste 0 -- -- 98
2020-01-22 07:00:00 2.8 0 Calma 10 Noroeste 0 -- -- 97
2020-01-22 06:00:00 3.3 0 Calma 10 Noroeste 0 -- -- 94
2020-01-22 05:00:00 3.7 8 Noroeste 16 Oeste 0 -- -- 92
2020-01-22 04:00:00 3.6 11 Sudoeste 22 Noroeste 0.2 -- -- 94
2020-01-22 03:00:00 4.1 12 Noroeste 20 Sudeste 2.6 -- -- 97
2020-01-22 02:00:00 4.9 9 Sudeste 19 Este 5.2 -- -- 93
2020-01-22 01:00:00 5.1 7 Sur 11 Sudoeste 0 -- -- 86
2020-01-22 00:00:00 5.1 4 Norte 19 Noroeste 0 -- -- 83